createdAt,value
2023-01-19T00:01:44.805Z,13.65
2023-01-19T00:04:13.394Z,12.85
2023-01-19T00:06:41.468Z,10.80
2023-01-19T00:09:10.138Z,12.30
2023-01-19T00:11:38.531Z,11.73
2023-01-19T00:14:06.618Z,11.52
2023-01-19T00:16:34.802Z,12.10
2023-01-19T00:19:02.909Z,11.98
2023-01-19T00:21:31.234Z,11.93
2023-01-19T00:23:59.628Z,12.10
2023-01-19T00:26:27.822Z,12.05
2023-01-19T00:28:56.598Z,13.27
2023-01-19T00:31:24.920Z,15.52
2023-01-19T00:33:53.200Z,16.58
2023-01-19T00:36:21.326Z,17.00
2023-01-19T00:38:49.510Z,15.65
2023-01-19T00:41:17.886Z,13.52
2023-01-19T00:43:46.006Z,11.85
2023-01-19T00:46:14.170Z,12.25
2023-01-19T00:48:42.293Z,12.68
2023-01-19T00:51:10.652Z,11.38
2023-01-19T00:53:38.709Z,12.52
2023-01-19T00:56:07.415Z,11.80
2023-01-19T00:58:35.427Z,11.82
2023-01-19T01:01:05.030Z,12.30
2023-01-19T01:03:33.614Z,11.30
2023-01-19T01:06:08.463Z,11.43
2023-01-19T01:08:36.795Z,12.63
2023-01-19T01:11:05.087Z,11.30
2023-01-19T01:13:33.548Z,12.45
2023-01-19T01:16:01.920Z,12.82
2023-01-19T01:18:29.899Z,13.25
2023-01-19T01:21:06.641Z,12.32
2023-01-19T01:23:36.097Z,11.63
2023-01-19T01:26:04.221Z,12.52
2023-01-19T01:28:32.583Z,12.75
2023-01-19T01:31:00.678Z,11.93
2023-01-19T01:33:41.256Z,12.55
2023-01-19T01:36:12.076Z,11.95
2023-01-19T01:38:41.664Z,12.00
2023-01-19T01:41:10.292Z,12.93
2023-01-19T01:43:55.186Z,13.45
2023-01-19T01:46:23.367Z,12.18
2023-01-19T01:49:10.818Z,11.75
2023-01-19T01:51:48.462Z,11.40
2023-01-19T01:54:30.805Z,10.65
2023-01-19T01:57:05.729Z,12.15
2023-01-19T01:59:40.534Z,10.63
2023-01-19T02:02:44.849Z,10.60
2023-01-19T02:05:38.325Z,9.85
2023-01-19T02:08:35.617Z,10.65
2023-01-19T02:11:23.696Z,9.90
2023-01-19T02:13:52.016Z,10.70
2023-01-19T02:16:20.199Z,11.05
2023-01-19T02:18:48.617Z,11.00
2023-01-19T02:21:56.702Z,12.25
2023-01-19T02:24:25.630Z,12.95
2023-01-19T02:26:54.007Z,11.55
2023-01-19T02:29:25.334Z,11.13
2023-01-19T02:31:54.747Z,11.00
2023-01-19T02:34:23.316Z,12.15
2023-01-19T02:37:00.372Z,11.73
2023-01-19T02:39:50.829Z,11.65
2023-01-19T02:42:30.496Z,12.02
2023-01-19T02:44:58.933Z,11.63
2023-01-19T02:47:27.076Z,12.95
2023-01-19T02:49:59.996Z,12.38
2023-01-19T02:52:28.564Z,12.15
2023-01-19T02:55:19.859Z,11.60
2023-01-19T02:58:15.703Z,11.48
2023-01-19T03:01:32.847Z,12.85
2023-01-19T03:04:13.927Z,12.25
2023-01-19T03:07:08.783Z,13.07
2023-01-19T03:10:22.711Z,12.75
2023-01-19T03:12:59.831Z,12.80
2023-01-19T03:15:45.441Z,12.30
2023-01-19T03:18:18.636Z,12.65
2023-01-19T03:20:49.885Z,13.50
2023-01-19T03:23:19.856Z,14.13
2023-01-19T03:25:50.908Z,12.40
2023-01-19T03:28:21.715Z,14.07
2023-01-19T03:30:59.760Z,13.07
2023-01-19T03:33:37.879Z,12.18
2023-01-19T03:36:31.391Z,12.60
2023-01-19T03:39:02.626Z,11.60
2023-01-19T03:41:34.618Z,11.68
2023-01-19T03:44:05.784Z,12.18
2023-01-19T03:46:34.792Z,12.57
2023-01-19T03:49:03.452Z,19.60
2023-01-19T03:51:35.392Z,16.50
2023-01-19T03:54:05.761Z,15.85
2023-01-19T03:56:34.103Z,16.17
2023-01-19T03:59:02.505Z,16.35
2023-01-19T04:01:30.897Z,14.98
2023-01-19T04:03:59.115Z,15.52
2023-01-19T04:06:28.102Z,14.38
2023-01-19T04:08:56.960Z,15.27
2023-01-19T04:11:25.774Z,13.48
2023-01-19T04:13:54.207Z,14.95
2023-01-19T04:16:23.831Z,14.27
2023-01-19T04:18:52.824Z,14.68
2023-01-19T04:21:20.864Z,14.25
2023-01-19T04:23:50.266Z,13.48
2023-01-19T04:26:19.082Z,14.18
2023-01-19T04:28:47.807Z,12.80
2023-01-19T04:31:16.070Z,13.90
2023-01-19T04:33:44.075Z,14.23
2023-01-19T04:36:11.955Z,14.25
2023-01-19T04:38:40.067Z,13.32
2023-01-19T04:41:07.955Z,15.20
2023-01-19T04:43:35.926Z,14.52
2023-01-19T04:46:04.315Z,15.48
2023-01-19T04:48:32.700Z,14.40
2023-01-19T04:51:00.730Z,14.73
2023-01-19T04:53:28.738Z,13.63
2023-01-19T04:55:57.305Z,13.98
2023-01-19T04:58:25.793Z,13.82
2023-01-19T05:00:53.818Z,13.77
2023-01-19T05:03:23.599Z,13.27
2023-01-19T05:05:53.406Z,14.77
2023-01-19T05:08:21.600Z,14.32
2023-01-19T05:10:50.766Z,13.43
2023-01-19T05:13:18.640Z,13.77
2023-01-19T05:15:46.821Z,14.60
2023-01-19T05:18:14.888Z,13.05
2023-01-19T05:20:43.103Z,13.32
2023-01-19T05:23:11.428Z,12.88
2023-01-19T05:25:39.481Z,13.80
2023-01-19T05:28:07.820Z,13.65
2023-01-19T05:30:36.339Z,14.43
2023-01-19T05:33:04.375Z,14.15
2023-01-19T05:35:36.161Z,13.80
2023-01-19T05:38:05.309Z,12.20
2023-01-19T05:40:33.533Z,13.02
2023-01-19T05:43:05.289Z,12.10
2023-01-19T05:45:35.156Z,13.02
2023-01-19T05:48:03.449Z,12.50
2023-01-19T05:50:32.365Z,12.75
2023-01-19T05:53:02.479Z,13.07
2023-01-19T05:55:30.853Z,12.05
2023-01-19T05:57:59.372Z,12.00
2023-01-19T06:00:28.045Z,12.98
2023-01-19T06:02:56.767Z,12.18
2023-01-19T06:05:24.631Z,11.82
2023-01-19T06:07:53.069Z,11.45
2023-01-19T06:10:21.314Z,12.15
2023-01-19T06:12:49.719Z,13.10
2023-01-19T06:15:18.265Z,12.50
2023-01-19T06:17:46.610Z,12.60
2023-01-19T06:20:15.600Z,14.75
2023-01-19T06:22:44.433Z,14.38
2023-01-19T06:25:13.164Z,15.18
2023-01-19T06:27:45.521Z,14.25
2023-01-19T06:30:14.434Z,15.23
2023-01-19T06:32:42.547Z,15.10
2023-01-19T06:35:12.361Z,14.88
2023-01-19T06:37:41.172Z,15.25
2023-01-19T06:40:10.387Z,15.60
2023-01-19T06:42:39.632Z,14.77
2023-01-19T06:45:10.249Z,14.77
2023-01-19T06:47:38.173Z,15.73
2023-01-19T06:50:07.523Z,15.18
2023-01-19T06:52:42.377Z,14.80
2023-01-19T06:55:12.312Z,15.63
2023-01-19T06:57:40.406Z,15.50
2023-01-19T07:00:09.389Z,15.13
2023-01-19T07:02:41.091Z,16.88
2023-01-19T07:07:42.141Z,15.35
2023-01-19T07:12:40.165Z,14.68
2023-01-19T07:15:09.522Z,14.85
2023-01-19T07:17:37.635Z,15.48
2023-01-19T07:20:06.835Z,16.52
2023-01-19T07:22:35.005Z,15.45
2023-01-19T07:25:03.775Z,14.43
2023-01-19T07:27:31.918Z,14.82
2023-01-19T07:30:01.227Z,15.95
2023-01-19T07:32:30.049Z,14.50
2023-01-19T07:34:57.979Z,15.20
2023-01-19T07:37:26.012Z,15.07
2023-01-19T07:39:53.956Z,15.35
2023-01-19T07:42:22.175Z,15.15
2023-01-19T07:44:50.137Z,15.30
2023-01-19T07:47:18.614Z,16.20
2023-01-19T07:49:47.097Z,16.55
2023-01-19T07:52:15.688Z,17.85
2023-01-19T07:54:43.864Z,16.85
2023-01-19T07:57:12.027Z,17.27
2023-01-19T07:59:40.025Z,17.95
2023-01-19T08:02:11.355Z,19.88
2023-01-19T08:04:40.460Z,19.45
2023-01-19T08:07:09.810Z,23.20
2023-01-19T08:09:38.409Z,24.55
2023-01-19T08:12:07.086Z,22.13
2023-01-19T08:14:35.223Z,31.80
2023-01-19T08:17:04.237Z,29.23
2023-01-19T08:19:32.539Z,22.58
2023-01-19T08:22:01.738Z,17.52
2023-01-19T08:24:31.712Z,21.17
2023-01-19T08:27:02.619Z,21.70
2023-01-19T08:29:32.345Z,18.37
2023-01-19T08:32:03.231Z,17.98
2023-01-19T08:34:33.840Z,17.92
2023-01-19T08:46:17.635Z,20.10
2023-01-19T08:48:48.270Z,20.45
2023-01-19T08:51:20.322Z,20.48
2023-01-19T08:53:48.643Z,19.75
2023-01-19T08:56:18.538Z,20.15
2023-01-19T09:01:37.637Z,17.80
2023-01-19T09:04:06.800Z,18.15
2023-01-19T09:06:35.083Z,18.63
2023-01-19T09:09:04.058Z,17.77
2023-01-19T09:11:33.801Z,17.67
2023-01-19T09:14:02.439Z,17.40
2023-01-19T09:16:31.175Z,16.67
2023-01-19T09:19:00.271Z,17.63
2023-01-19T09:21:29.067Z,18.23
2023-01-19T09:23:58.023Z,18.38
2023-01-19T09:26:27.083Z,17.60
2023-01-19T09:28:55.394Z,18.15
2023-01-19T09:31:24.345Z,17.52
2023-01-19T09:33:54.643Z,18.50
2023-01-19T09:36:24.401Z,17.38
2023-01-19T09:38:53.022Z,19.45
2023-01-19T09:41:22.941Z,19.45
2023-01-19T09:44:00.671Z,19.95
2023-01-19T09:46:43.624Z,19.35
2023-01-19T09:49:27.008Z,21.63
2023-01-19T09:51:55.465Z,20.42
2023-01-19T09:54:58.766Z,21.05
2023-01-19T09:57:28.008Z,20.02
2023-01-19T09:59:59.995Z,20.88
2023-01-19T10:02:57.326Z,21.30
2023-01-19T10:05:45.801Z,21.52
2023-01-19T10:08:28.896Z,20.67
2023-01-19T10:10:59.501Z,21.65
2023-01-19T10:13:50.168Z,23.85
2023-01-19T10:16:59.460Z,22.73
2023-01-19T10:19:41.219Z,23.27
2023-01-19T10:22:25.902Z,23.67
2023-01-19T10:25:08.816Z,24.00
2023-01-19T10:27:39.698Z,24.00
2023-01-19T10:30:16.761Z,24.53
2023-01-19T10:32:45.754Z,25.80
2023-01-19T10:35:23.982Z,24.25
2023-01-19T10:38:01.698Z,24.50
2023-01-19T10:41:05.443Z,25.17
2023-01-19T10:43:41.711Z,23.83
2023-01-19T10:46:44.120Z,22.67
2023-01-19T10:49:31.631Z,22.95
2023-01-19T10:52:01.136Z,22.95
2023-01-19T10:54:32.821Z,22.30
2023-01-19T10:59:51.276Z,21.55
2023-01-19T11:02:28.147Z,21.55
2023-01-19T11:05:23.096Z,21.45
2023-01-19T11:07:52.324Z,21.40
2023-01-19T11:10:29.915Z,21.05
2023-01-19T11:13:14.419Z,21.35
2023-01-19T11:16:09.973Z,21.73
2023-01-19T11:18:41.861Z,21.77
2023-01-19T11:21:19.843Z,21.05
2023-01-19T11:23:52.537Z,21.52
2023-01-19T11:26:48.993Z,21.02
2023-01-19T11:29:27.870Z,21.83
2023-01-19T11:32:10.795Z,20.33
2023-01-19T11:34:39.918Z,20.85
2023-01-19T11:37:20.317Z,21.60
2023-01-19T11:39:59.005Z,20.23
2023-01-19T11:42:33.547Z,22.00
2023-01-19T11:45:17.912Z,21.77
2023-01-19T11:47:57.060Z,19.75
2023-01-19T11:50:44.270Z,21.73
2023-01-19T11:53:25.959Z,21.40
2023-01-19T11:56:14.002Z,19.08
2023-01-19T11:58:48.561Z,19.77
2023-01-19T12:01:26.389Z,19.73
2023-01-19T12:04:14.427Z,21.45
2023-01-19T12:06:53.657Z,19.33
2023-01-19T12:09:39.711Z,18.38
2023-01-19T12:12:31.422Z,19.42
2023-01-19T12:15:36.075Z,17.75
2023-01-19T12:18:08.287Z,18.92
2023-01-19T12:20:41.074Z,18.50
2023-01-19T12:23:18.922Z,17.10
2023-01-19T12:26:24.622Z,16.40
2023-01-19T12:28:59.268Z,16.27
2023-01-19T12:31:28.619Z,17.17
2023-01-19T12:34:20.124Z,16.92
2023-01-19T12:36:49.820Z,15.60
2023-01-19T12:39:22.147Z,16.40
2023-01-19T12:42:21.275Z,15.98
2023-01-19T12:44:52.532Z,16.45
2023-01-19T12:50:06.769Z,14.95
2023-01-19T12:52:41.806Z,15.98
2023-01-19T12:55:16.989Z,15.73
2023-01-19T12:57:56.655Z,16.45
2023-01-19T13:00:24.731Z,15.45
2023-01-19T13:03:20.139Z,16.70
2023-01-19T13:05:55.935Z,15.93
2023-01-19T13:08:49.554Z,14.88
2023-01-19T13:11:20.329Z,14.15
2023-01-19T13:14:00.223Z,14.55
2023-01-19T13:16:28.837Z,16.08
2023-01-19T13:19:05.519Z,15.05
2023-01-19T13:21:44.765Z,14.85
2023-01-19T13:24:15.917Z,15.27
2023-01-19T13:27:00.337Z,16.17
2023-01-19T13:29:31.811Z,14.50
2023-01-19T13:32:05.368Z,14.57
2023-01-19T13:35:07.171Z,14.48
2023-01-19T13:37:42.498Z,14.80
2023-01-19T13:40:30.553Z,16.92
2023-01-19T13:42:59.855Z,17.45
2023-01-19T13:45:38.170Z,17.75
2023-01-19T13:48:14.954Z,17.52
2023-01-19T13:50:56.381Z,16.50
2023-01-19T13:53:25.223Z,18.03
2023-01-19T13:56:23.327Z,16.55
2023-01-19T13:59:10.327Z,15.55
2023-01-19T14:01:46.089Z,13.85
2023-01-19T14:04:33.939Z,14.77
2023-01-19T14:07:06.280Z,14.85
2023-01-19T14:09:34.844Z,15.45
2023-01-19T14:12:17.584Z,15.38
2023-01-19T14:14:50.113Z,14.20
2023-01-19T14:17:28.418Z,13.48
2023-01-19T14:20:01.465Z,15.13
2023-01-19T14:22:44.110Z,15.10
2023-01-19T14:25:36.753Z,16.65
2023-01-19T14:28:40.730Z,15.75
2023-01-19T14:31:28.434Z,17.05
2023-01-19T14:33:59.037Z,15.10
2023-01-19T14:36:40.062Z,14.88
2023-01-19T14:39:22.420Z,15.60
2023-01-19T14:41:53.231Z,16.77
2023-01-19T14:44:40.218Z,15.05
2023-01-19T14:47:27.963Z,17.80
2023-01-19T14:50:02.913Z,17.58
2023-01-19T14:52:42.758Z,18.27
2023-01-19T14:55:49.589Z,18.88
2023-01-19T14:58:21.551Z,20.02
2023-01-19T15:00:50.335Z,17.77
2023-01-19T15:03:19.811Z,16.95
2023-01-19T15:05:50.176Z,15.85
2023-01-19T15:08:33.817Z,15.75
2023-01-19T15:11:22.323Z,15.90
2023-01-19T15:13:50.984Z,18.88
2023-01-19T15:16:20.366Z,18.15
2023-01-19T15:18:49.168Z,16.52
2023-01-19T15:21:23.886Z,15.35
2023-01-19T15:23:52.434Z,14.93
2023-01-19T15:26:25.711Z,16.10
2023-01-19T15:28:56.695Z,16.73
2023-01-19T15:31:26.808Z,16.60
2023-01-19T15:33:55.198Z,17.55
2023-01-19T15:36:25.785Z,16.58
2023-01-19T15:38:53.770Z,15.93
2023-01-19T15:41:30.274Z,16.90
2023-01-19T15:43:59.187Z,16.40
2023-01-19T15:46:28.521Z,18.45
2023-01-19T15:48:57.325Z,15.90
2023-01-19T15:51:27.355Z,17.88
2023-01-19T15:53:56.130Z,15.88
2023-01-19T15:56:30.442Z,16.98
2023-01-19T15:58:59.985Z,16.25
2023-01-19T16:01:34.365Z,15.73
2023-01-19T16:04:08.145Z,15.65
2023-01-19T16:06:36.434Z,16.70
2023-01-19T16:09:04.550Z,15.07
2023-01-19T16:11:35.381Z,16.50
2023-01-19T16:14:03.650Z,17.77
2023-01-19T16:16:31.977Z,16.65
2023-01-19T16:19:00.398Z,20.17
2023-01-19T16:21:29.213Z,24.80
2023-01-19T16:23:57.513Z,18.80
2023-01-19T16:26:35.624Z,18.13
2023-01-19T16:29:10.114Z,17.60
2023-01-19T16:31:41.469Z,16.52
2023-01-19T16:34:11.124Z,18.25
2023-01-19T16:36:42.336Z,22.25
2023-01-19T16:39:18.474Z,19.77
2023-01-19T16:41:46.877Z,21.48
2023-01-19T16:44:17.128Z,15.98
2023-01-19T16:46:46.931Z,15.40
2023-01-19T16:49:24.311Z,16.98
2023-01-19T16:51:54.958Z,14.75
2023-01-19T16:54:27.993Z,13.43
2023-01-19T16:56:57.786Z,14.43
2023-01-19T16:59:27.308Z,16.00
2023-01-19T17:01:57.414Z,14.77
2023-01-19T17:04:27.446Z,15.02
2023-01-19T17:06:56.250Z,16.17
2023-01-19T17:09:24.761Z,12.70
2023-01-19T17:11:52.840Z,11.48
2023-01-19T17:14:21.145Z,11.35
2023-01-19T17:16:50.223Z,11.75
2023-01-19T17:19:21.103Z,11.52
2023-01-19T17:21:49.985Z,11.13
2023-01-19T17:24:18.793Z,11.82
2023-01-19T17:26:49.046Z,10.88
2023-01-19T17:29:18.116Z,10.90
2023-01-19T17:31:47.158Z,10.82
2023-01-19T17:34:15.751Z,11.02
2023-01-19T17:36:44.073Z,10.27
2023-01-19T17:39:15.114Z,10.90
2023-01-19T17:41:43.740Z,11.98
2023-01-19T17:44:12.083Z,11.75
2023-01-19T17:46:40.461Z,10.32
2023-01-19T17:49:09.381Z,9.65
2023-01-19T17:51:37.965Z,10.18
2023-01-19T17:54:09.038Z,10.82
2023-01-19T17:56:38.902Z,16.55
2023-01-19T17:59:08.399Z,13.55
2023-01-19T18:01:40.984Z,13.85
2023-01-19T18:04:10.870Z,11.35
2023-01-19T18:06:40.626Z,13.00
2023-01-19T18:09:09.728Z,13.05
2023-01-19T18:11:38.784Z,13.23
2023-01-19T18:14:08.264Z,13.60
2023-01-19T18:16:37.452Z,15.32
2023-01-19T18:19:06.806Z,16.60
2023-01-19T18:21:35.749Z,15.57
2023-01-19T18:24:06.614Z,17.70
2023-01-19T18:26:36.587Z,14.67
2023-01-19T18:29:05.164Z,15.82
2023-01-19T18:31:33.724Z,19.77
2023-01-19T18:34:02.114Z,11.13
2023-01-19T18:36:34.435Z,13.75
2023-01-19T18:39:04.103Z,14.35
2023-01-19T18:41:34.597Z,15.20
2023-01-19T18:44:03.091Z,14.85
2023-01-19T18:46:33.303Z,11.93
2023-01-19T18:49:02.170Z,11.10
2023-01-19T18:51:31.048Z,17.08
2023-01-19T18:54:00.137Z,12.80
2023-01-19T18:56:29.003Z,21.02
2023-01-19T18:58:57.733Z,15.35
2023-01-19T19:01:32.828Z,12.95
2023-01-19T19:04:02.819Z,10.48
2023-01-19T19:06:31.855Z,13.90
2023-01-19T19:09:00.575Z,10.38
2023-01-19T19:11:29.106Z,9.70
2023-01-19T19:14:03.399Z,12.55
2023-01-19T19:16:35.178Z,12.93
2023-01-19T19:19:05.485Z,13.88
2023-01-19T19:21:33.988Z,14.88
2023-01-19T19:24:02.656Z,15.60
2023-01-19T19:26:31.626Z,12.95
2023-01-19T19:29:02.037Z,14.15
2023-01-19T19:31:31.129Z,16.58
2023-01-19T19:34:00.203Z,13.68
2023-01-19T19:36:30.077Z,13.05
2023-01-19T19:39:00.126Z,13.20
2023-01-19T19:41:29.851Z,15.65
2023-01-19T19:43:59.640Z,17.42
2023-01-19T19:46:29.716Z,17.67
2023-01-19T19:48:58.305Z,17.27
2023-01-19T19:51:28.716Z,22.85
2023-01-19T19:54:00.673Z,17.20
2023-01-19T19:56:31.941Z,20.13
2023-01-19T19:59:01.543Z,17.50
2023-01-19T20:01:33.710Z,11.32
2023-01-19T20:04:12.126Z,16.52
2023-01-19T20:06:45.033Z,16.52
2023-01-19T20:09:16.231Z,16.40
2023-01-19T20:11:46.939Z,16.88
2023-01-19T20:14:16.841Z,15.88
2023-01-19T20:16:45.335Z,14.82
2023-01-19T20:19:13.825Z,14.25
2023-01-19T20:21:44.052Z,16.10
2023-01-19T20:24:19.904Z,15.35
2023-01-19T20:26:52.806Z,17.75
2023-01-19T20:29:21.603Z,16.52
2023-01-19T20:31:55.640Z,15.30
2023-01-19T20:34:32.111Z,14.43
2023-01-19T20:37:03.006Z,13.98
2023-01-19T20:39:33.769Z,17.42
2023-01-19T20:42:02.545Z,12.35
2023-01-19T20:44:30.980Z,13.57
2023-01-19T20:46:59.468Z,13.60
2023-01-19T20:49:29.079Z,12.18
2023-01-19T20:51:58.429Z,12.55
2023-01-19T20:54:30.368Z,14.02
2023-01-19T20:59:33.733Z,15.98
2023-01-19T21:02:02.317Z,15.95
2023-01-19T21:04:30.723Z,15.32
2023-01-19T21:06:59.602Z,12.90
2023-01-19T21:09:29.737Z,12.77
2023-01-19T21:11:58.576Z,13.00
2023-01-19T21:14:30.221Z,16.92
2023-01-19T21:16:58.838Z,16.40
2023-01-19T21:19:27.464Z,14.73
2023-01-19T21:21:55.927Z,14.88
2023-01-19T21:24:24.828Z,13.52
2023-01-19T21:26:53.137Z,17.75
2023-01-19T21:29:21.965Z,18.27
2023-01-19T21:31:50.774Z,17.83
2023-01-19T21:34:21.028Z,16.23
2023-01-19T21:36:49.725Z,16.55
2023-01-19T21:39:18.495Z,15.57
2023-01-19T21:41:47.342Z,18.05
2023-01-19T21:44:16.108Z,15.73
2023-01-19T21:46:45.453Z,15.18
2023-01-19T21:49:19.503Z,17.88
2023-01-19T21:51:53.323Z,16.95
2023-01-19T21:54:21.955Z,16.40
2023-01-19T21:56:50.641Z,14.32
2023-01-19T21:59:20.385Z,19.45
2023-01-19T22:01:49.414Z,17.63
2023-01-19T22:04:18.037Z,12.88
2023-01-19T22:06:47.524Z,21.27
2023-01-19T22:09:16.122Z,16.33
2023-01-19T22:11:45.216Z,16.50
2023-01-19T22:14:19.272Z,18.95
2023-01-19T22:16:48.529Z,17.95
2023-01-19T22:19:23.400Z,14.88
2023-01-19T22:21:51.652Z,14.52
2023-01-19T22:24:20.370Z,16.85
2023-01-19T22:26:48.489Z,16.25
2023-01-19T22:29:20.178Z,14.98
2023-01-19T22:34:20.387Z,14.68
2023-01-19T22:36:49.775Z,15.73
2023-01-19T22:39:18.164Z,15.95
2023-01-19T22:41:47.443Z,14.93
2023-01-19T22:44:23.441Z,14.23
2023-01-19T22:46:55.798Z,14.05
2023-01-19T22:49:24.345Z,13.65
2023-01-19T22:51:54.444Z,12.90
2023-01-19T22:54:23.521Z,14.15
2023-01-19T22:56:51.875Z,13.90
2023-01-19T22:59:21.116Z,14.00
2023-01-19T23:01:51.742Z,13.93
2023-01-19T23:04:20.683Z,13.75
2023-01-19T23:06:51.106Z,12.32
2023-01-19T23:09:19.940Z,12.52
2023-01-19T23:11:50.879Z,10.18
2023-01-19T23:14:22.202Z,12.95
2023-01-19T23:16:50.812Z,12.85
2023-01-19T23:19:19.916Z,13.40
2023-01-19T23:21:52.825Z,12.88
2023-01-19T23:24:20.976Z,13.82
2023-01-19T23:26:52.310Z,14.07
2023-01-19T23:29:20.769Z,13.88
2023-01-19T23:31:50.238Z,13.90
2023-01-19T23:34:18.569Z,13.15
2023-01-19T23:36:48.720Z,14.20
2023-01-19T23:39:21.183Z,16.10
2023-01-19T23:41:49.984Z,15.98
2023-01-19T23:44:18.448Z,15.13
2023-01-19T23:46:46.639Z,15.05
2023-01-19T23:49:15.638Z,15.32
2023-01-19T23:51:43.873Z,14.60
2023-01-19T23:54:12.420Z,14.88
2023-01-19T23:56:42.756Z,13.43
2023-01-19T23:59:14.263Z,11.70
